Cologne, Minnesota
Current Conditions -  °F | °C
As of 4:34 PM on Monday 26 Jan 2015 (Local Time) from KGYL Reporting Station
Overcast Overcast  
Wind Chill: 33°   Ceiling: 3400
Heat Index: 40°   Visibility: 10mi
Dew Point: 35°   Wind: 14mph
Humidity: 80%   Direction: 300°WNW
Pressure: 29.83"   Gusts: 20mph
Location:  44.77°N, 93.78°W
Report Text: KGYL 262234Z AUTO 30012G17KT 10SM OVC034 05/02 A2983 RMK AO2 T00460015
Loading
Personal Weather Stations






























Interactive Weather Map New forecast layout! Learn more

10-Day Weather Forecast

Advertisements
Track Severe Weather on mobile